Time;durP1;ratioP1;P1;durP2;ratioP2;P2;SDS_P1;SDS_P2;PMS_P1;PMS_P2;Temp;Humidity;BMP_temperature;BMP_pressure;BME280_temperature;BME280_humidity;BME280_pressure;Samples;Min_cycle;Max_cycle;Signal;HPM_P1;HPM_P2
2021/07/16 00:00:30;;;;;;;16.30;5.45;;;;;;;21.75;69.57;100362.31;1771312;79;21257;-57
2021/07/16 00:03:36;;;;;;;11.63;4.35;;;;;;;21.73;69.65;100361.17;1773090;80;21193;-59
2021/07/16 00:06:45;;;;;;;13.98;4.55;;;;;;;21.77;69.66;100357.38;1772970;80;21599;-59
2021/07/16 00:09:52;;;;;;;16.37;5.05;;;;;;;21.78;69.61;100361.84;1772901;80;21668;-58
2021/07/16 00:12:58;;;;;;;14.50;4.60;;;;;;;21.76;69.77;100355.13;1772714;81;21729;-57
2021/07/16 00:16:05;;;;;;;12.40;4.95;;;;;;;21.76;69.79;100357.06;1773203;80;21189;-57
2021/07/16 00:19:15;;;;;;;20.68;4.90;;;;;;;21.76;69.73;100349.55;1773491;80;21351;-57
2021/07/16 00:22:22;;;;;;;21.20;5.40;;;;;;;21.80;69.53;100354.09;1769186;79;21168;-57
2021/07/16 00:25:27;;;;;;;13.72;5.03;;;;;;;21.80;69.46;100340.98;1804937;79;21214;-57
2021/07/16 00:28:35;;;;;;;20.25;5.22;;;;;;;21.80;69.63;100342.95;1804419;79;21371;-57
2021/07/16 00:31:40;;;;;;;16.30;5.58;;;;;;;21.80;69.47;100336.80;1805085;79;21332;-59
2021/07/16 00:34:45;;;;;;;15.80;4.75;;;;;;;21.83;69.50;100346.63;1796467;79;21347;-57
2021/07/16 00:37:50;;;;;;;18.35;5.47;;;;;;;21.84;69.42;100345.52;1804875;79;21694;-57
2021/07/16 00:40:57;;;;;;;15.85;5.25;;;;;;;21.84;69.27;100343.58;1804607;79;21332;-59
2021/07/16 00:44:02;;;;;;;23.10;5.20;;;;;;;21.83;69.07;100340.51;1804678;79;21339;-58
2021/07/16 00:47:14;;;;;;;17.05;4.70;;;;;;;21.85;68.98;100345.27;1804080;79;21382;-58
2021/07/16 00:50:24;;;;;;;19.00;5.60;;;;;;;21.85;68.99;100350.84;1804636;79;21327;-57
2021/07/16 00:53:31;;;;;;;16.07;4.92;;;;;;;21.81;68.96;100346.88;1804357;79;21386;-58
2021/07/16 00:56:35;;;;;;;14.10;4.95;;;;;;;21.78;69.39;100342.34;1804450;79;21205;-58
2021/07/16 00:59:42;;;;;;;12.73;4.47;;;;;;;21.77;69.40;100342.05;1804649;79;21838;-58
2021/07/16 01:02:47;;;;;;;16.67;4.50;;;;;;;21.77;69.26;100344.27;1800651;79;21273;-58
2021/07/16 01:05:52;;;;;;;20.15;5.22;;;;;;;21.77;69.16;100348.45;1802966;79;21760;-58
2021/07/16 01:08:57;;;;;;;16.62;5.05;;;;;;;21.78;69.13;100352.09;1802540;79;21323;-59
2021/07/16 01:12:02;;;;;;;17.27;4.70;;;;;;;21.77;69.03;100343.45;1802403;79;21315;-58
2021/07/16 01:15:08;;;;;;;19.45;4.92;;;;;;;21.79;69.05;100353.23;1802447;79;21399;-59
2021/07/16 01:18:14;;;;;;;13.75;4.30;;;;;;;21.79;69.09;100353.77;1802443;79;21825;-59
2021/07/16 01:21:21;;;;;;;17.05;5.15;;;;;;;21.79;69.00;100342.63;1802597;79;21319;-59
2021/07/16 01:24:28;;;;;;;14.15;4.85;;;;;;;21.77;68.95;100344.84;1802504;79;21729;-58
2021/07/16 01:27:34;;;;;;;14.15;4.67;;;;;;;21.76;68.82;100342.59;1802343;79;21292;-58
2021/07/16 01:30:41;;;;;;;15.40;5.33;;;;;;;21.78;68.62;100351.55;1802372;79;21375;-58
2021/07/16 01:33:46;;;;;;;14.00;4.83;;;;;;;21.81;68.32;100351.05;1802328;79;21186;-58
2021/07/16 01:36:51;;;;;;;12.20;5.12;;;;;;;21.84;68.08;100341.33;1802917;79;21328;-58
2021/07/16 01:39:59;;;;;;;14.60;5.45;;;;;;;21.85;67.80;100342.48;1802912;79;21351;-59
2021/07/16 01:43:05;;;;;;;13.95;5.42;;;;;;;21.87;67.47;100343.08;1802651;79;21842;-57
2021/07/16 01:46:11;;;;;;;13.65;5.15;;;;;;;21.88;67.25;100337.80;1802653;79;21359;-58
2021/07/16 01:49:18;;;;;;;11.68;4.85;;;;;;;21.90;67.18;100333.36;1803190;79;21375;-58
2021/07/16 01:52:23;;;;;;;18.05;5.60;;;;;;;21.90;66.98;100335.61;1802370;79;21316;-57
2021/07/16 01:55:29;;;;;;;15.40;6.42;;;;;;;21.90;66.81;100334.21;1802469;79;21340;-59
2021/07/16 01:58:36;;;;;;;11.80;4.90;;;;;;;21.92;66.73;100331.17;1802348;79;21418;-60
2021/07/16 02:01:43;;;;;;;13.75;5.60;;;;;;;21.92;66.66;100325.06;1802339;79;21303;-58
2021/07/16 02:04:49;;;;;;;13.53;5.62;;;;;;;21.93;66.64;100323.95;1793137;79;21374;-57
2021/07/16 02:07:57;;;;;;;14.58;5.05;;;;;;;21.93;66.64;100321.16;1802239;79;21217;-59
2021/07/16 02:11:05;;;;;;;13.35;5.20;;;;;;;21.94;66.57;100324.27;1802426;79;21182;-60
2021/07/16 02:14:11;;;;;;;18.30;5.08;;;;;;;21.96;66.49;100328.20;1802047;79;21769;-58
2021/07/16 02:17:17;;;;;;;17.65;5.35;;;;;;;21.99;66.39;100329.91;1802026;79;21339;-58
2021/07/16 02:20:32;;;;;;;20.37;6.60;;;;;;;22.01;66.30;100330.52;1802392;79;21324;-59
2021/07/16 02:23:39;;;;;;;12.78;6.72;;;;;;;22.07;66.25;100333.68;1803018;79;21206;-58
2021/07/16 02:26:45;;;;;;;14.78;6.15;;;;;;;22.09;66.18;100324.52;1802475;79;21320;-58
2021/07/16 02:29:50;;;;;;;12.03;5.28;;;;;;;22.14;66.16;100326.55;1802063;79;21410;-58
2021/07/16 02:32:56;;;;;;;14.80;5.22;;;;;;;22.16;66.13;100322.44;1802731;79;21383;-59
2021/07/16 02:36:03;;;;;;;13.58;5.22;;;;;;;22.19;66.11;100323.86;1801785;79;21394;-59
2021/07/16 02:39:08;;;;;;;12.25;6.35;;;;;;;22.21;66.14;100322.49;1801864;79;21356;-58
2021/07/16 02:42:13;;;;;;;11.78;6.42;;;;;;;22.26;66.15;100325.09;1801960;79;21710;-58
2021/07/16 02:45:25;;;;;;;15.15;5.67;;;;;;;22.31;66.18;100316.81;1802879;79;21721;-58
2021/07/16 02:48:30;;;;;;;13.93;6.78;;;;;;;22.35;66.22;100315.19;1802998;79;21225;-58
2021/07/16 02:51:37;;;;;;;20.92;10.78;;;;;;;22.38;66.29;100314.67;1794958;79;21348;-59
2021/07/16 02:54:42;;;;;;;23.57;11.70;;;;;;;22.42;66.40;100322.85;1802598;79;21213;-59
2021/07/16 02:57:48;;;;;;;18.20;7.92;;;;;;;22.43;66.54;100307.25;1802424;79;21308;-59
2021/07/16 03:00:54;;;;;;;17.20;8.68;;;;;;;22.46;66.60;100300.30;1802620;79;21343;-59
2021/07/16 03:04:02;;;;;;;15.93;8.58;;;;;;;22.48;66.68;100305.94;1801491;78;21205;-58
2021/07/16 03:07:07;;;;;;;15.85;9.05;;;;;;;22.50;66.77;100319.63;1802948;79;21359;-57
2021/07/16 03:10:14;;;;;;;18.92;8.35;;;;;;;22.53;66.87;100316.36;1802503;79;21257;-58
2021/07/16 03:13:21;;;;;;;15.95;8.13;;;;;;;22.58;66.97;100318.67;1802717;79;21252;-59
2021/07/16 03:16:29;;;;;;;20.27;8.20;;;;;;;22.63;66.97;100313.74;1802892;79;21836;-58
2021/07/16 03:19:36;;;;;;;14.40;8.10;;;;;;;22.67;66.99;100312.11;1802626;79;21230;-57
2021/07/16 03:22:42;;;;;;;14.50;7.67;;;;;;;22.70;67.04;100322.77;1802668;79;21248;-57
2021/07/16 03:25:47;;;;;;;15.20;7.30;;;;;;;22.71;67.12;100321.11;1802530;79;21352;-59
2021/07/16 03:28:54;;;;;;;15.28;8.13;;;;;;;22.73;67.24;100311.08;1802150;79;21344;-58
2021/07/16 03:32:02;;;;;;;15.48;8.60;;;;;;;22.76;67.53;100307.77;1802748;79;21308;-58
2021/07/16 03:35:07;;;;;;;13.28;7.25;;;;;;;22.81;67.71;100305.06;1802598;79;21745;-58
2021/07/16 03:38:13;;;;;;;15.98;7.33;;;;;;;22.87;67.89;100305.42;1786426;79;21206;-58
2021/07/16 03:41:19;;;;;;;12.95;7.37;;;;;;;22.90;68.11;100299.31;1801958;79;21367;-58
2021/07/16 03:44:24;;;;;;;15.03;7.87;;;;;;;22.94;68.37;100307.48;1802069;79;21746;-58
2021/07/16 03:47:32;;;;;;;14.03;7.97;;;;;;;22.96;68.65;100305.29;1802097;78;21655;-57
2021/07/16 03:50:37;;;;;;;13.78;7.42;;;;;;;22.96;68.89;100296.34;1802898;79;21743;-58
2021/07/16 03:53:42;;;;;;;16.32;8.35;;;;;;;22.95;69.23;100289.08;1802147;79;21355;-58
2021/07/16 03:56:47;;;;;;;16.30;7.60;;;;;;;22.98;69.51;100296.08;1802218;79;21323;-58
2021/07/16 03:59:54;;;;;;;11.70;8.28;;;;;;;23.04;69.79;100295.07;1802245;79;21419;-59
2021/07/16 04:03:01;;;;;;;15.13;9.15;;;;;;;23.10;70.06;100296.82;1802426;79;21361;-57
2021/07/16 04:06:07;;;;;;;15.32;8.95;;;;;;;23.18;70.30;100297.77;1801299;79;21805;-57
2021/07/16 04:09:30;;;;;;;16.73;8.83;;;;;;;23.25;70.49;100288.62;1802248;79;21348;-58
2021/07/16 04:12:36;;;;;;;14.05;9.75;;;;;;;23.34;70.58;100295.49;1802547;79;21415;-58
2021/07/16 04:15:42;;;;;;;15.80;9.70;;;;;;;23.43;70.59;100293.91;1802587;79;21332;-58
2021/07/16 04:18:48;;;;;;;19.48;9.60;;;;;;;23.53;70.61;100299.62;1802352;79;21355;-58
2021/07/16 04:21:54;;;;;;;16.55;8.88;;;;;;;23.61;70.52;100313.96;1802558;79;21244;-58
2021/07/16 04:24:59;;;;;;;13.65;7.62;;;;;;;23.71;70.54;100307.64;1803840;79;21342;-58
2021/07/16 04:28:07;;;;;;;10.70;6.85;;;;;;;23.82;70.29;100321.20;1802443;79;21225;-58
2021/07/16 04:31:13;;;;;;;13.40;6.87;;;;;;;23.88;70.21;100312.56;1802640;78;21252;-57
2021/07/16 04:34:18;;;;;;;13.83;7.40;;;;;;;24.01;70.14;100309.38;1802454;79;21324;-57
2021/07/16 04:37:26;;;;;;;18.23;7.28;;;;;;;24.12;69.94;100316.75;1802610;79;21320;-58
2021/07/16 04:40:34;;;;;;;8.48;6.80;;;;;;;24.23;69.79;100311.53;1802887;79;21311;-59
2021/07/16 04:43:39;;;;;;;13.80;7.10;;;;;;;24.36;69.58;100323.69;1802440;79;21221;-58
2021/07/16 04:46:47;;;;;;;14.78;7.60;;;;;;;24.48;69.41;100316.52;1802356;79;21210;-58
2021/07/16 04:49:52;;;;;;;11.38;6.85;;;;;;;24.60;69.37;100311.55;1802403;79;21390;-57
2021/07/16 04:52:58;;;;;;;14.53;7.17;;;;;;;24.73;69.10;100311.13;1803162;78;21198;-57
2021/07/16 04:56:05;;;;;;;17.17;6.83;;;;;;;24.85;68.86;100303.34;1801897;79;21328;-60
2021/07/16 04:59:10;;;;;;;11.88;7.20;;;;;;;24.99;68.74;100304.00;1802122;79;21200;-58
2021/07/16 05:02:16;;;;;;;11.65;7.05;;;;;;;25.15;68.18;100305.50;1801634;79;21336;-59
2021/07/16 05:05:24;;;;;;;9.50;7.08;;;;;;;25.32;67.46;100305.58;1800888;79;21367;-59
2021/07/16 05:08:30;;;;;;;8.95;6.87;;;;;;;25.47;66.83;100303.39;1795389;79;21386;-57
2021/07/16 05:11:36;;;;;;;11.55;6.75;;;;;;;25.60;65.88;100304.29;1798659;79;21264;-58
2021/07/16 05:14:41;;;;;;;13.93;7.25;;;;;;;25.74;64.90;100298.44;1780077;79;21273;-55
2021/07/16 05:17:47;;;;;;;10.72;7.10;;;;;;;25.89;63.61;100287.26;1777471;79;21209;-55
2021/07/16 05:20:52;;;;;;;12.05;6.90;;;;;;;26.00;63.22;100287.03;1772595;80;21797;-56
2021/07/16 05:23:59;;;;;;;10.50;7.05;;;;;;;26.13;63.14;100286.46;1772350;80;21923;-56
2021/07/16 05:27:03;;;;;;;16.35;7.40;;;;;;;26.26;62.89;100296.28;1778833;79;21248;-56
2021/07/16 05:30:10;;;;;;;16.20;7.72;;;;;;;26.37;62.36;100292.35;1803662;79;21750;-58
2021/07/16 05:33:16;;;;;;;12.15;7.50;;;;;;;26.47;61.67;100290.95;1803978;79;21402;-58
2021/07/16 05:36:25;;;;;;;12.03;7.95;;;;;;;26.55;61.49;100290.38;1804066;79;21833;-57
2021/07/16 05:39:31;;;;;;;10.95;8.63;;;;;;;26.64;61.20;100297.14;1804184;79;21343;-57
2021/07/16 05:42:38;;;;;;;17.52;8.88;;;;;;;26.73;61.35;100296.02;1803908;79;21420;-58
2021/07/16 05:45:48;;;;;;;18.45;9.00;;;;;;;26.83;60.54;100301.04;1804006;79;21355;-57
2021/07/16 05:48:56;;;;;;;10.03;8.40;;;;;;;26.93;59.92;100291.74;1803965;79;21217;-56
2021/07/16 05:52:05;;;;;;;13.20;9.28;;;;;;;27.01;59.98;100295.38;1790726;79;21268;-58
2021/07/16 05:55:14;;;;;;;13.53;8.90;;;;;;;27.08;59.59;100293.97;1780853;79;21331;-58
2021/07/16 05:58:19;;;;;;;17.05;9.35;;;;;;;27.16;59.56;100293.34;1781978;79;21371;-58
2021/07/16 06:01:26;;;;;;;13.32;9.30;;;;;;;27.26;59.16;100286.33;1783852;79;21363;-57
2021/07/16 06:04:33;;;;;;;13.93;9.50;;;;;;;27.33;58.91;100274.22;1773588;79;21347;-58
2021/07/16 06:07:40;;;;;;;12.35;9.50;;;;;;;27.40;58.45;100274.73;1794075;79;21339;-57
2021/07/16 06:10:54;;;;;;;19.77;9.95;;;;;;;27.50;58.60;100277.50;1799240;79;21742;-57
2021/07/16 06:14:00;;;;;;;11.90;8.90;;;;;;;27.61;58.17;100280.53;1788985;79;21255;-57
2021/07/16 06:17:06;;;;;;;12.23;8.85;;;;;;;27.71;58.13;100276.27;1801146;78;21165;-58
2021/07/16 06:20:16;;;;;;;11.40;8.15;;;;;;;27.80;57.95;100275.91;1790159;79;21182;-57
2021/07/16 06:23:24;;;;;;;14.47;8.05;;;;;;;27.84;58.44;100282.62;1769979;79;21205;-58
2021/07/16 06:26:32;;;;;;;11.80;7.78;;;;;;;27.86;58.62;100278.96;1792203;79;21180;-63
2021/07/16 06:29:39;;;;;;;12.03;8.70;;;;;;;27.91;58.43;100270.26;1792898;79;21377;-60
2021/07/16 06:32:46;;;;;;;11.60;8.58;;;;;;;27.95;58.37;100267.12;1770437;80;21216;-66
2021/07/16 06:35:53;;;;;;;12.05;8.88;;;;;;;28.01;58.71;100270.16;1789431;79;21621;-65
2021/07/16 06:38:59;;;;;;;14.18;8.38;;;;;;;28.07;58.34;100264.80;1785952;79;21797;-63
2021/07/16 06:42:06;;;;;;;15.60;8.18;;;;;;;28.15;58.32;100272.58;1802268;79;21359;-62
2021/07/16 06:45:13;;;;;;;13.83;8.48;;;;;;;28.22;57.91;100264.09;1803009;79;21363;-63
2021/07/16 06:48:23;;;;;;;13.05;9.75;;;;;;;28.31;58.18;100272.73;1795552;79;21194;-65
2021/07/16 06:51:30;;;;;;;13.80;10.32;;;;;;;28.40;57.17;100263.95;1777773;79;21212;-61
2021/07/16 06:54:43;;;;;;;15.45;10.35;;;;;;;28.47;56.50;100272.88;1785383;79;21240;-60
2021/07/16 06:57:51;;;;;;;16.20;10.80;;;;;;;28.54;56.03;100266.38;1778247;79;21451;-58
2021/07/16 07:00:57;;;;;;;12.58;10.10;;;;;;;28.61;56.32;100258.40;1782751;79;21201;-59
2021/07/16 07:04:04;;;;;;;15.43;10.98;;;;;;;28.68;56.35;100253.27;1794623;79;21853;-61
2021/07/16 07:07:09;;;;;;;13.65;10.45;;;;;;;28.75;55.98;100253.17;1775159;79;21188;-59
2021/07/16 07:10:17;;;;;;;16.87;12.85;;;;;;;28.85;56.15;100259.27;1768166;79;21730;-59
2021/07/16 07:13:26;;;;;;;20.30;12.25;;;;;;;28.92;55.72;100256.95;1773117;79;21366;-59
2021/07/16 07:16:31;;;;;;;19.73;11.18;;;;;;;28.98;55.33;100255.75;1770369;81;21915;-61
2021/07/16 07:19:38;;;;;;;17.87;10.80;;;;;;;29.05;55.00;100267.52;1782669;79;21331;-60
2021/07/16 07:22:43;;;;;;;15.70;10.70;;;;;;;29.09;54.42;100252.55;1786825;79;21335;-60
2021/07/16 07:25:49;;;;;;;13.80;10.68;;;;;;;29.16;54.84;100260.65;1784155;79;21201;-58
2021/07/16 07:28:55;;;;;;;13.08;10.78;;;;;;;29.21;54.86;100260.55;1801595;79;21315;-59
2021/07/16 07:32:03;;;;;;;16.02;10.80;;;;;;;29.27;54.72;100252.33;1798886;79;21166;-61
2021/07/16 07:35:08;;;;;;;17.12;10.72;;;;;;;29.34;54.97;100243.47;1788070;79;21304;-60
2021/07/16 07:38:14;;;;;;;16.67;11.50;;;;;;;29.44;54.81;100248.98;1792474;79;21190;-61
2021/07/16 07:41:19;;;;;;;13.15;11.18;;;;;;;29.51;54.25;100245.23;1791265;79;21312;-60
2021/07/16 07:44:25;;;;;;;15.48;10.60;;;;;;;29.57;54.19;100253.32;1781109;79;21154;-60
2021/07/16 07:47:40;;;;;;;19.25;11.75;;;;;;;29.63;53.88;100254.07;1788358;79;21706;-59
2021/07/16 07:50:47;;;;;;;16.15;11.33;;;;;;;29.67;53.87;100251.77;1772552;79;21493;-62
2021/07/16 07:53:53;;;;;;;13.50;11.28;;;;;;;29.78;53.66;100255.31;1781340;79;21150;-63
2021/07/16 07:57:03;;;;;;;15.85;11.12;;;;;;;29.86;53.50;100256.84;1780184;79;21737;-63
2021/07/16 08:00:11;;;;;;;12.63;10.90;;;;;;;29.90;53.18;100245.79;1802668;79;21162;-65
2021/07/16 08:03:18;;;;;;;14.70;11.65;;;;;;;29.91;52.76;100236.16;1799895;79;21359;-60
2021/07/16 08:06:25;;;;;;;14.05;11.55;;;;;;;29.98;52.57;100243.69;1801830;79;21319;-61
2021/07/16 08:09:32;;;;;;;14.95;11.20;;;;;;;29.98;52.57;100243.69;1800575;78;21178;-64
2021/07/16 08:12:37;;;;;;;15.20;11.68;;;;;;;30.03;52.65;100238.78;1802094;79;21210;-62
2021/07/16 08:15:43;;;;;;;13.62;11.75;;;;;;;30.04;52.64;100244.72;1798867;79;21391;-65
2021/07/16 08:18:50;;;;;;;14.28;11.57;;;;;;;30.04;52.64;100244.72;1786579;79;21391;-64
2021/07/16 08:21:58;;;;;;;16.90;13.00;;;;;;;30.12;52.97;100245.99;1779765;79;21710;-61
2021/07/16 08:25:04;;;;;;;20.12;13.80;;;;;;;30.20;53.12;100248.97;1790150;79;21177;-62
2021/07/16 08:28:12;;;;;;;15.78;11.75;;;;;;;30.37;52.40;100245.02;1770850;80;21773;-62
2021/07/16 08:31:24;;;;;;;20.68;12.15;;;;;;;30.37;52.40;100245.02;1793408;79;21181;-62
2021/07/16 08:34:31;;;;;;;12.45;11.20;;;;;;;30.43;51.46;100246.61;1782635;79;21288;-62
2021/07/16 08:37:41;;;;;;;14.78;11.22;;;;;;;30.49;51.21;100243.95;1773218;79;21208;-63
2021/07/16 08:40:53;;;;;;;13.13;11.25;;;;;;;30.61;51.22;100242.89;1772519;79;21376;-62
2021/07/16 08:44:01;;;;;;;13.93;10.95;;;;;;;30.63;50.76;100236.36;1770553;80;21766;-62
2021/07/16 08:47:11;;;;;;;18.77;11.30;;;;;;;30.63;50.76;100236.36;1787934;79;21162;-62
2021/07/16 08:50:20;;;;;;;17.10;14.83;;;;;;;30.64;51.29;100242.27;1799039;79;21707;-63
2021/07/16 08:53:25;;;;;;;15.48;11.12;;;;;;;30.74;51.75;100244.63;1781305;79;21357;-58
2021/07/16 08:56:36;;;;;;;15.90;11.30;;;;;;;30.88;51.03;100248.34;1769731;80;21181;-62
2021/07/16 08:59:42;;;;;;;15.50;10.78;;;;;;;30.99;50.31;100242.17;1770221;80;21389;-61
2021/07/16 09:03:00;;;;;;;14.30;10.72;;;;;;;31.12;50.21;100234.27;1791250;79;21320;-63
2021/07/16 09:06:08;;;;;;;15.13;11.05;;;;;;;31.27;50.31;100240.19;1792974;79;21332;-65
2021/07/16 09:09:15;;;;;;;14.03;10.55;;;;;;;31.46;49.70;100233.86;1802257;79;21240;-63
2021/07/16 09:12:25;;;;;;;12.07;10.35;;;;;;;31.63;49.30;100230.63;1799553;79;22003;-61
2021/07/16 09:15:31;;;;;;;14.80;11.35;;;;;;;31.77;49.57;100238.50;1801904;79;21782;-57
2021/07/16 09:18:40;;;;;;;20.30;11.35;;;;;;;31.88;48.50;100237.14;1801649;79;21189;-58
2021/07/16 09:22:09;;;;;;;14.78;12.03;;;;;;;31.85;48.83;100232.68;1801239;79;21731;-58
2021/07/16 09:25:15;;;;;;;16.48;11.83;;;;;;;31.87;48.92;100241.70;1801937;79;21154;-57
2021/07/16 09:28:32;;;;;;;15.18;10.98;;;;;;;31.84;48.13;100231.02;1801565;79;21395;-58
2021/07/16 09:31:44;;;;;;;16.15;11.90;;;;;;;31.85;48.73;100228.43;1801578;79;21190;-58
2021/07/16 09:34:58;;;;;;;;;;;;;;;31.92;48.83;100235.32;1788864;79;21343;-58
2021/07/16 09:38:08;;;;;;;13.37;11.33;;;;;;;32.03;48.13;100229.66;1770612;80;20605;-58
2021/07/16 09:41:14;;;;;;;14.93;11.63;;;;;;;31.99;47.51;100230.63;1770113;81;21793;-59
2021/07/16 09:44:21;;;;;;;22.32;13.08;;;;;;;31.94;47.81;100235.00;1770473;80;21193;-58
2021/07/16 09:47:30;;;;;;;14.20;11.90;;;;;;;31.94;48.03;100236.41;1770431;80;21181;-57
2021/07/16 09:50:35;;;;;;;14.65;12.45;;;;;;;32.01;48.42;100236.82;1770397;81;21713;-58
2021/07/16 09:54:06;;;;;;;17.73;12.88;;;;;;;32.10;47.93;100236.30;1769816;80;21209;-60
2021/07/16 09:57:12;;;;;;;15.08;11.80;;;;;;;32.25;47.68;100240.19;1770078;81;21201;-60
2021/07/16 10:00:24;;;;;;;13.58;11.97;;;;;;;32.45;47.25;100227.49;1770525;81;21193;-60
2021/07/16 10:03:30;;;;;;;13.20;11.60;;;;;;;32.57;47.36;100226.34;1770574;80;21209;-60
2021/07/16 10:06:38;;;;;;;21.50;12.13;;;;;;;32.74;46.74;100219.33;1770791;81;21201;-58
2021/07/16 10:09:45;;;;;;;18.85;12.25;;;;;;;32.83;46.39;100222.46;1770686;81;21189;-58
2021/07/16 10:12:55;;;;;;;16.32;11.43;;;;;;;32.68;46.51;100215.78;1772409;79;21698;-58
2021/07/16 10:16:03;;;;;;;15.15;11.18;;;;;;;32.52;46.97;100234.97;1770805;80;21315;-58
2021/07/16 10:19:08;;;;;;;14.07;11.40;;;;;;;32.39;47.31;100226.80;1770603;80;21287;-57
2021/07/16 10:22:15;;;;;;;14.83;11.20;;;;;;;32.29;47.36;100225.61;1798529;79;21825;-58
2021/07/16 10:25:26;;;;;;;13.98;10.63;;;;;;;32.27;46.90;100232.17;1780268;79;21202;-59
2021/07/16 10:28:49;;;;;;;18.48;11.03;;;;;;;32.33;47.32;100225.81;1769597;80;21272;-59
2021/07/16 10:31:54;;;;;;;20.40;12.13;;;;;;;32.48;47.14;100217.77;1771081;80;21291;-59
2021/07/16 10:35:02;;;;;;;18.85;11.10;;;;;;;32.54;45.87;100217.06;1770910;80;21235;-59
2021/07/16 10:38:09;;;;;;;17.10;11.43;;;;;;;32.58;45.81;100216.66;1727287;80;21276;-59
2021/07/16 10:41:14;;;;;;;17.90;12.10;;;;;;;32.66;45.51;100215.87;1760693;80;21236;-58
2021/07/16 10:44:23;;;;;;;13.08;10.78;;;;;;;32.63;45.71;100213.12;1763101;79;21173;-60
2021/07/16 10:47:54;;;;;;;14.85;11.20;;;;;;;32.54;45.57;100213.63;1793151;79;21339;-57
2021/07/16 10:51:03;;;;;;;12.50;10.28;;;;;;;32.44;46.26;100209.67;1799926;79;21837;-60
2021/07/16 10:54:12;;;;;;;11.15;9.73;;;;;;;32.46;46.84;100203.07;1801761;79;21355;-58
2021/07/16 10:57:22;;;;;;;13.43;9.18;;;;;;;32.52;46.55;100198.96;1795416;79;21381;-56
2021/07/16 11:00:47;;;;;;;12.03;7.92;;;;;;;32.61;45.96;100194.16;1775949;79;21204;-58
2021/07/16 11:03:56;;;;;;;13.55;7.22;;;;;;;32.67;44.32;100201.36;1769435;80;21213;-57
2021/07/16 11:07:03;;;;;;;10.90;6.55;;;;;;;32.69;43.29;100183.45;1770970;79;21282;-60
2021/07/16 11:10:15;;;;;;;9.70;6.12;;;;;;;32.74;40.91;100191.81;1770144;81;21165;-60
2021/07/16 11:13:48;;;;;;;9.50;5.75;;;;;;;32.75;40.42;100195.47;1763905;80;21726;-58
2021/07/16 11:17:01;;;;;;;10.70;5.87;;;;;;;32.78;39.28;100195.66;1779218;79;21146;-59
2021/07/16 11:20:23;;;;;;;13.10;7.05;;;;;;;32.84;40.58;100194.34;1801426;79;21332;-58
2021/07/16 11:23:31;;;;;;;12.35;7.65;;;;;;;32.92;41.24;100199.85;1803296;79;21352;-57
2021/07/16 11:26:39;;;;;;;11.00;6.85;;;;;;;32.99;42.11;100195.94;1774821;79;21927;-59
2021/07/16 11:29:55;;;;;;;11.22;6.00;;;;;;;33.01;41.66;100194.46;1771588;80;21331;-58
2021/07/16 11:33:11;;;;;;;10.65;6.50;;;;;;;33.03;40.30;100197.78;1772213;80;22063;-58
2021/07/16 11:36:22;;;;;;;10.50;5.87;;;;;;;33.06;40.82;100190.64;1772018;80;21354;-58
2021/07/16 11:39:46;;;;;;;8.48;7.10;;;;;;;33.03;41.57;100184.20;1773175;80;21414;-59
2021/07/16 11:42:59;;;;;;;9.88;7.05;;;;;;;33.03;41.96;100192.11;1784075;79;21232;-58
2021/07/16 11:46:06;;;;;;;9.23;6.42;;;;;;;33.04;42.62;100190.97;1772749;80;21169;-58
2021/07/16 11:49:18;;;;;;;10.08;6.37;;;;;;;33.03;41.87;100189.27;1772426;80;21216;-58
2021/07/16 11:52:31;;;;;;;8.90;6.17;;;;;;;33.00;41.20;100183.41;1772117;80;21232;-64
2021/07/16 11:55:43;;;;;;;12.18;6.67;;;;;;;32.91;41.58;100189.08;1777507;79;21418;-59
2021/07/16 11:58:58;;;;;;;8.98;5.95;;;;;;;32.88;41.12;100193.99;1771687;81;21904;-57
2021/07/16 12:02:22;;;;;;;12.60;5.62;;;;;;;32.85;40.96;100176.18;1782169;79;21415;-58
2021/07/16 12:05:32;;;;;;;11.08;8.08;;;;;;;32.74;40.67;100181.89;1785962;79;21330;-58
2021/07/16 12:08:39;;;;;;;8.88;6.80;;;;;;;32.67;41.42;100180.09;1772975;79;21694;-58
2021/07/16 12:11:46;;;;;;;15.85;11.55;;;;;;;32.65;41.43;100181.59;1771441;81;21343;-59
2021/07/16 12:15:07;;;;;;;13.93;9.83;;;;;;;32.61;41.86;100176.30;1769194;80;21761;-58
2021/07/16 12:18:14;;;;;;;11.85;6.55;;;;;;;32.65;41.47;100180.99;1771018;80;21813;-60
2021/07/16 12:21:21;;;;;;;11.57;5.90;;;;;;;32.65;39.99;100186.66;1775269;79;21209;-59
2021/07/16 12:24:28;;;;;;;17.20;6.87;;;;;;;32.61;39.13;100180.56;1774223;79;21210;-58
2021/07/16 12:27:37;;;;;;;10.18;8.10;;;;;;;32.54;39.75;100183.05;1770515;79;21257;-60
2021/07/16 12:30:44;;;;;;;13.50;7.08;;;;;;;32.52;40.93;100198.96;1778717;79;21177;-59
2021/07/16 12:33:49;;;;;;;10.05;7.15;;;;;;;32.51;42.38;100188.77;1779203;79;21226;-57
2021/07/16 12:36:58;;;;;;;13.83;7.33;;;;;;;32.45;43.13;100185.82;1770173;81;21230;-58
2021/07/16 12:40:12;;;;;;;12.63;7.42;;;;;;;32.51;43.52;100195.85;1770870;81;21202;-59
2021/07/16 12:43:23;;;;;;;8.53;6.87;;;;;;;32.47;43.54;100193.42;1772048;80;21235;-59
2021/07/16 12:46:35;;;;;;;16.93;8.50;;;;;;;32.31;43.80;100194.11;1770850;80;21219;-59
2021/07/16 12:49:43;;;;;;;8.50;7.03;;;;;;;32.23;44.43;100205.66;1770799;81;21587;-61
2021/07/16 12:52:49;;;;;;;12.75;6.72;;;;;;;32.23;43.83;100207.08;1770376;81;21203;-59
2021/07/16 12:55:54;;;;;;;10.72;7.50;;;;;;;32.18;44.65;100208.62;1783300;79;21185;-59
2021/07/16 12:59:05;;;;;;;10.95;7.85;;;;;;;32.17;44.72;100211.20;1801525;79;21382;-61
2021/07/16 13:02:12;;;;;;;11.30;8.15;;;;;;;32.13;44.55;100203.08;1801996;79;21327;-60
2021/07/16 13:05:18;;;;;;;9.33;7.47;;;;;;;32.04;44.59;100199.34;1800633;79;21355;-58
2021/07/16 13:08:33;;;;;;;12.75;7.83;;;;;;;32.02;44.78;100210.16;1793446;79;21547;-59
2021/07/16 13:11:38;;;;;;;13.58;7.83;;;;;;;32.02;44.70;100198.02;1784423;79;21412;-59
2021/07/16 13:14:48;;;;;;;11.05;7.03;;;;;;;32.01;45.18;100195.75;1770006;80;21224;-59
2021/07/16 13:17:57;;;;;;;10.48;7.45;;;;;;;31.96;44.32;100198.70;1769738;81;21201;-59
2021/07/16 13:21:02;;;;;;;11.73;7.50;;;;;;;31.88;44.56;100192.39;1770503;80;21177;-59
2021/07/16 13:24:07;;;;;;;7.62;6.65;;;;;;;31.82;43.72;100192.23;1770832;80;21228;-58
2021/07/16 13:27:16;;;;;;;11.50;7.17;;;;;;;31.73;43.99;100177.98;1771198;79;21257;-59
2021/07/16 13:30:24;;;;;;;8.08;6.55;;;;;;;31.68;43.72;100177.29;1770464;81;21826;-59
2021/07/16 13:33:31;;;;;;;12.20;7.00;;;;;;;31.57;44.01;100175.26;1770150;81;21225;-59
2021/07/16 13:36:37;;;;;;;9.38;6.87;;;;;;;31.53;44.40;100181.31;1775811;79;21189;-59
2021/07/16 13:39:45;;;;;;;12.73;7.45;;;;;;;31.53;44.35;100187.55;1776847;79;21772;-59
2021/07/16 13:42:52;;;;;;;11.65;6.90;;;;;;;31.47;44.05;100182.59;1802457;79;21343;-59
2021/07/16 13:45:59;;;;;;;12.95;7.33;;;;;;;31.45;43.43;100184.05;1799598;79;21186;-59
2021/07/16 13:49:05;;;;;;;11.48;7.15;;;;;;;31.41;43.24;100180.20;1801119;79;21820;-60
2021/07/16 13:52:12;;;;;;;14.60;7.75;;;;;;;31.39;43.38;100178.25;1802668;79;21304;-59
2021/07/16 13:55:19;;;;;;;13.43;7.20;;;;;;;31.39;43.52;100181.93;1799407;79;21375;-60
2021/07/16 13:58:26;;;;;;;12.28;7.30;;;;;;;31.41;43.34;100181.01;1774751;79;21733;-58
2021/07/16 14:01:33;;;;;;;10.88;7.97;;;;;;;31.42;43.34;100171.95;1801892;79;21312;-59
2021/07/16 14:04:40;;;;;;;12.55;7.30;;;;;;;31.44;43.21;100175.31;1801607;79;21718;-59
2021/07/16 14:07:47;;;;;;;13.05;7.78;;;;;;;31.43;42.97;100173.65;1799464;79;21880;-58
2021/07/16 14:10:53;;;;;;;13.08;8.28;;;;;;;31.41;42.92;100173.13;1801872;79;21252;-58
2021/07/16 14:13:59;;;;;;;12.80;8.05;;;;;;;31.40;43.31;100169.44;1785163;79;21256;-58
2021/07/16 14:17:06;;;;;;;10.38;7.90;;;;;;;31.36;43.75;100166.16;1778924;78;21738;-59
2021/07/16 14:20:16;;;;;;;10.68;9.15;;;;;;;31.34;44.26;100163.65;1767913;80;21271;-57
2021/07/16 14:23:21;;;;;;;12.30;8.15;;;;;;;31.41;44.57;100167.46;1761672;81;21371;-58